LHSM/SOB METAR and TAF weather

Enter ICAO airport designator
Station Type Date Time Source
LHSM METAR 2020/11/27 14:15 UTC NOAA

LHSM 271415Z AUTO 35003KT 4600 BR OVC007 01/00 Q1024 NOSIG


Station Type Date Time Source
LHSM Decoded METAR 2020/11/27 14:15 UTC NOAA

Station name not available
Nov 27, 2020 - 09:15 AM EST / 2020.11.27 1415 UTC
Wind: from the N (350 degrees) at 3 MPH (3 KT):0
Visibility: 2 mile(s):0
Sky conditions: overcast
Weather: mist
Temperature: 33 F (1 C)
Dew Point: 32 F (0 C)
Relative Humidity: 93%
Pressure (altimeter): 30.24 in. Hg (1024 hPa)
ob: LHSM 271415Z AUTO 35003KT 4600 BR OVC007 01/00 Q1024 NOSIG
cycle: 14

Station Type Date Time Source
LHSM TAF UTC NOAA

Error!

Example: see airport list